Time,TemperatureF,DewpointF,PressureIn,WindDirection,WindDirectionDegrees,WindSpeedMPH,WindSpeedGustMPH,Humidity,HourlyPrecipIn,Conditions,Clouds,dailyrainin,SolarRadiationWatts/m^2,SoftwareType,DateUTC
2013-06-25 00:00:00,71.1,67.7,30.10,WSW,238,0.0,0.0,89,0.00,RA,SCT,0.00,0.0,WeatherDisplay:10.37,2013-06-25 04:00:00,
2013-06-25 00:05:00,71.0,67.6,30.10,WSW,238,0.0,0.0,89,0.00,RA,SCT,0.00,0.0,WeatherDisplay:10.37,2013-06-25 04:05:00,
2013-06-25 00:15:00,70.9,67.5,30.10,WSW,238,0.0,2.0,89,0.00,BKN,SCT,0.00,0.0,WeatherDisplay:10.37,2013-06-25 04:15:00,
2013-06-25 00:20:00,70.8,67.4,30.10,WSW,238,0.0,0.0,89,0.00,BKN,SCT,0.00,0.0,WeatherDisplay:10.37,2013-06-25 04:20:00,
2013-06-25 00:25:00,70.8,67.7,30.10,WSW,238,0.0,0.0,90,0.00,BKN,SCT,0.00,0.0,WeatherDisplay:10.37,2013-06-25 04:25:00,
2013-06-25 00:30:00,70.9,67.8,30.10,WSW,238,0.0,0.0,90,0.00,BKN,SCT,0.00,0.0,WeatherDisplay:10.37,2013-06-25 04:30:00,
2013-06-25 00:35:00,70.9,67.8,30.10,WSW,238,0.0,0.0,90,0.00,BKN,SCT,0.00,0.0,WeatherDisplay:10.37,2013-06-25 04:35:00,
2013-06-25 00:40:00,70.9,67.8,30.09,WSW,238,0.0,1.0,90,0.00,BKN,SCT,0.00,0.0,WeatherDisplay:10.37,2013-06-25 04:40:00,
2013-06-25 00:45:00,70.8,67.7,30.09,WSW,238,0.0,0.0,90,0.00,BKN,SCT,0.00,0.0,WeatherDisplay:10.37,2013-06-25 04:45:00,
2013-06-25 00:50:00,70.7,67.6,30.09,WSW,238,0.0,0.0,90,0.00,BKN,SCT,0.00,0.0,WeatherDisplay:10.37,2013-06-25 04:50:00,
2013-06-25 00:55:00,70.6,67.5,30.09,WSW,238,0.0,0.0,90,0.00,BKN,SCT,0.00,0.0,WeatherDisplay:10.37,2013-06-25 04:55:00,
2013-06-25 01:00:00,70.6,67.5,30.09,WSW,238,0.0,0.0,90,0.00,BKN,SCT,0.00,0.0,WeatherDisplay:10.37,2013-06-25 05:00:00,
2013-06-25 01:05:00,70.5,67.4,30.09,WSW,238,0.0,0.0,90,0.00,BKN,SCT,0.00,0.0,WeatherDisplay:10.37,2013-06-25 05:05:00,
2013-06-25 01:10:00,70.4,67.3,30.10,WSW,238,0.0,0.0,90,0.00,BKN,SCT,0.00,0.0,WeatherDisplay:10.37,2013-06-25 05:10:00,
2013-06-25 01:15:00,70.3,67.2,30.09,WSW,238,0.0,0.0,90,0.00,BKN,SCT,0.00,0.0,WeatherDisplay:10.37,2013-06-25 05:15:00,
2013-06-25 01:25:00,69.9,66.8,30.10,WSW,238,0.0,1.0,90,0.00,BKN,SCT,0.00,0.0,WeatherDisplay:10.37,2013-06-25 05:25:00,
2013-06-25 01:30:00,69.8,66.7,30.10,WSW,238,0.0,0.0,90,0.00,BKN,SCT,0.00,0.0,WeatherDisplay:10.37,2013-06-25 05:30:00,
2013-06-25 01:35:00,69.6,66.5,30.10,WSW,238,0.0,0.0,90,0.00,BKN,SCT,0.00,0.0,WeatherDisplay:10.37,2013-06-25 05:35:00,
2013-06-25 01:40:00,69.5,66.4,30.10,WSW,238,0.0,0.0,90,0.00,BKN,SCT,0.00,0.0,WeatherDisplay:10.37,2013-06-25 05:40:00,
2013-06-25 01:45:00,69.3,66.3,30.10,WSW,238,0.0,0.0,90,0.00,BKN,SCT,0.00,0.0,WeatherDisplay:10.37,2013-06-25 05:45:00,
2013-06-25 01:50:00,69.3,66.5,30.09,WSW,238,0.0,0.0,91,0.00,BKN,SCT,0.00,0.0,WeatherDisplay:10.37,2013-06-25 05:50:00,
2013-06-25 01:55:00,69.1,66.4,30.09,WSW,238,0.0,0.0,91,0.00,BKN,SCT,0.00,0.0,WeatherDisplay:10.37,2013-06-25 05:55:00,
2013-06-25 02:00:00,69.1,66.3,30.09,WSW,238,0.0,1.0,91,0.00,BKN,SCT,0.00,0.0,WeatherDisplay:10.37,2013-06-25 06:00:00,
2013-06-25 02:05:00,69.0,66.3,30.09,WSW,238,0.0,0.0,91,0.00,BKN,SCT,0.00,0.0,WeatherDisplay:10.37,2013-06-25 06:05:00,
2013-06-25 02:10:00,69.0,66.3,30.09,WSW,238,0.0,2.0,91,0.00,BKN,SCT,0.00,0.0,WeatherDisplay:10.37,2013-06-25 06:10:00,
2013-06-25 02:15:00,69.0,66.3,30.09,WSW,238,0.0,0.0,91,0.00,BKN,SCT,0.00,0.0,WeatherDisplay:10.37,2013-06-25 06:15:00,
2013-06-25 02:20:00,69.0,66.3,30.09,WSW,238,0.0,0.0,91,0.00,BKN,SCT,0.00,0.0,WeatherDisplay:10.37,2013-06-25 06:20:00,
2013-06-25 02:25:00,69.0,66.3,30.08,WSW,238,0.0,0.0,91,0.00,BKN,SCT,0.00,0.0,WeatherDisplay:10.37,2013-06-25 06:25:00,
2013-06-25 02:30:00,69.0,66.3,30.08,WSW,238,0.0,0.0,91,0.00,BKN,SCT,0.00,0.0,WeatherDisplay:10.37,2013-06-25 06:30:00,
2013-06-25 02:35:00,68.9,66.2,30.08,WSW,238,0.0,0.0,91,0.00,BKN,SCT,0.00,0.0,WeatherDisplay:10.37,2013-06-25 06:35:00,
2013-06-25 02:40:00,68.9,66.2,30.08,WSW,238,0.0,0.0,91,0.00,BKN,SCT,0.00,0.0,WeatherDisplay:10.37,2013-06-25 06:40:00,
2013-06-25 02:45:00,68.9,66.2,30.08,WSW,238,0.0,0.0,91,0.00,BKN,SCT,0.00,0.0,WeatherDisplay:10.37,2013-06-25 06:45:00,
2013-06-25 02:50:00,68.9,66.2,30.08,WSW,238,0.0,0.0,91,0.00,BKN,SCT,0.00,0.0,WeatherDisplay:10.37,2013-06-25 06:50:00,
2013-06-25 02:55:00,68.9,66.2,30.08,WSW,238,0.0,0.0,91,0.00,BKN,SCT,0.00,0.0,WeatherDisplay:10.37,2013-06-25 06:55:00,
2013-06-25 03:00:00,68.9,66.2,30.08,WSW,238,0.0,0.0,91,0.00,BKN,SCT,0.00,0.0,WeatherDisplay:10.37,2013-06-25 07:00:00,
2013-06-25 03:05:00,68.9,66.1,30.08,WSW,238,0.0,0.0,91,0.00,BKN,SCT,0.00,0.0,WeatherDisplay:10.37,2013-06-25 07:05:00,
2013-06-25 03:10:00,68.8,66.1,30.08,WSW,238,0.0,0.0,91,0.00,BKN,SCT,0.00,0.0,WeatherDisplay:10.37,2013-06-25 07:10:00,
2013-06-25 03:15:00,68.8,66.1,30.08,WSW,238,0.0,0.0,91,0.00,BKN,SCT,0.00,0.0,WeatherDisplay:10.37,2013-06-25 07:15:00,
2013-06-25 03:20:00,68.8,66.1,30.08,WSW,238,0.0,1.0,91,0.00,BKN,SCT,0.00,0.0,WeatherDisplay:10.37,2013-06-25 07:20:00,
2013-06-25 03:25:00,68.7,66.0,30.08,WSW,238,0.0,1.0,91,0.00,BKN,SCT,0.00,0.0,WeatherDisplay:10.37,2013-06-25 07:25:00,
2013-06-25 03:30:00,68.7,66.0,30.07,WSW,238,0.0,0.0,91,0.00,BKN,SCT,0.00,0.0,WeatherDisplay:10.37,2013-06-25 07:30:00,
2013-06-25 03:35:00,68.7,66.0,30.07,WSW,238,0.0,0.0,91,0.00,BKN,SCT,0.00,0.0,WeatherDisplay:10.37,2013-06-25 07:35:00,
2013-06-25 03:40:00,68.7,66.0,30.07,WSW,238,0.0,0.0,91,0.00,BKN,SCT,0.00,0.0,WeatherDisplay:10.37,2013-06-25 07:40:00,
2013-06-25 03:45:00,68.8,66.4,30.07,WSW,238,0.0,1.0,92,0.00,BKN,SCT,0.00,0.0,WeatherDisplay:10.37,2013-06-25 07:45:00,
2013-06-25 03:50:00,68.7,66.3,30.07,WSW,238,0.0,0.0,92,0.00,BKN,SCT,0.00,0.0,WeatherDisplay:10.37,2013-06-25 07:50:00,
2013-06-25 03:55:00,68.7,66.3,30.07,WSW,238,0.0,0.0,92,0.00,BKN,SCT,0.00,0.0,WeatherDisplay:10.37,2013-06-25 07:55:00,
2013-06-25 04:00:00,68.6,66.2,30.07,WSW,238,0.0,0.0,92,0.00,BKN,SCT,0.00,0.0,WeatherDisplay:10.37,2013-06-25 08:00:00,
2013-06-25 04:05:00,68.5,66.1,30.07,WSW,238,0.0,0.0,92,0.00,BKN,SCT,0.00,0.0,WeatherDisplay:10.37,2013-06-25 08:05:00,
2013-06-25 04:10:00,68.5,66.1,30.07,WSW,238,0.0,0.0,92,0.00,BKN,SCT,0.00,0.0,WeatherDisplay:10.37,2013-06-25 08:10:00,
2013-06-25 04:15:00,68.5,66.1,30.07,WSW,238,0.0,0.0,92,0.00,BKN,SCT,0.00,0.0,WeatherDisplay:10.37,2013-06-25 08:15:00,
2013-06-25 04:20:00,68.4,66.0,30.07,WSW,238,0.0,0.0,92,0.00,BKN,SCT,0.00,0.0,WeatherDisplay:10.37,2013-06-25 08:20:00,
2013-06-25 04:25:00,68.5,66.1,30.07,WSW,238,0.0,0.0,92,0.00,BKN,SCT,0.00,0.0,WeatherDisplay:10.37,2013-06-25 08:25:00,
2013-06-25 04:30:00,68.5,66.1,30.07,WSW,238,0.0,0.0,92,0.00,BKN,SCT,0.00,0.0,WeatherDisplay:10.37,2013-06-25 08:30:00,
2013-06-25 04:35:00,68.4,66.0,30.07,WSW,238,0.0,0.0,92,0.00,BKN,SCT,0.00,0.0,WeatherDisplay:10.37,2013-06-25 08:35:00,
2013-06-25 04:45:00,68.4,66.0,30.07,WSW,238,0.0,0.0,92,0.00,BKN,SCT,0.00,0.0,WeatherDisplay:10.37,2013-06-25 08:45:00,
2013-06-25 04:50:00,68.4,66.0,30.07,WSW,238,0.0,0.0,92,0.00,BKN,SCT,0.00,0.0,WeatherDisplay:10.37,2013-06-25 08:50:00,
2013-06-25 04:55:00,68.4,66.0,30.07,WSW,238,0.0,0.0,92,0.00,BKN,SCT,0.00,0.0,WeatherDisplay:10.37,2013-06-25 08:55:00,
2013-06-25 05:00:00,68.3,65.9,30.07,WSW,238,0.0,0.0,92,0.00,BKN,SCT,0.00,0.0,WeatherDisplay:10.37,2013-06-25 09:00:00,
2013-06-25 05:05:00,68.3,65.9,30.07,WSW,238,0.0,0.0,92,0.00,BKN,SCT,0.00,0.0,WeatherDisplay:10.37,2013-06-25 09:05:00,
2013-06-25 05:10:00,68.2,65.8,30.07,WSW,238,0.0,0.0,92,0.00,BKN,SCT,0.00,0.0,WeatherDisplay:10.37,2013-06-25 09:10:00,
2013-06-25 05:15:00,68.1,65.7,30.07,WSW,238,0.0,0.0,92,0.00,BKN,SCT,0.00,0.0,WeatherDisplay:10.37,2013-06-25 09:15:00,
2013-06-25 05:20:00,68.0,65.6,30.07,WSW,238,0.0,0.0,92,0.00,BKN,SCT,0.00,0.0,WeatherDisplay:10.37,2013-06-25 09:20:00,
2013-06-25 05:25:00,68.0,65.6,30.07,WSW,238,0.0,1.0,92,0.00,BKN,SCT,0.00,0.0,WeatherDisplay:10.37,2013-06-25 09:25:00,
2013-06-25 05:30:00,68.0,65.6,30.07,WSW,238,0.0,0.0,92,0.00,BKN,SCT,0.00,0.0,WeatherDisplay:10.37,2013-06-25 09:30:00,
2013-06-25 05:35:00,68.0,65.6,30.07,WSW,238,0.0,0.0,92,0.00,BKN,SCT,0.00,0.0,WeatherDisplay:10.37,2013-06-25 09:35:00,
2013-06-25 05:40:00,68.0,65.6,30.07,WSW,238,0.0,0.0,92,0.00,BKN,SCT,0.00,0.0,WeatherDisplay:10.37,2013-06-25 09:40:00,
2013-06-25 05:45:00,68.0,65.6,30.07,WSW,238,0.0,0.0,92,0.00,BKN,SCT,0.00,0.0,WeatherDisplay:10.37,2013-06-25 09:45:00,
2013-06-25 05:50:00,68.1,65.7,30.08,WSW,238,0.0,0.0,92,0.00,BKN,SCT,0.00,0.0,WeatherDisplay:10.37,2013-06-25 09:50:00,
2013-06-25 05:55:00,68.1,65.7,30.08,WSW,238,0.0,0.0,92,0.00,BKN,SCT,0.00,0.0,WeatherDisplay:10.37,2013-06-25 09:55:00,
2013-06-25 06:00:00,68.3,65.9,30.08,WSW,238,0.0,0.0,92,0.00,BKN,SCT,0.00,0.0,WeatherDisplay:10.37,2013-06-25 10:00:00,
2013-06-25 06:05:00,68.3,65.9,30.08,WSW,238,0.0,0.0,92,0.00,BKN,SCT,0.00,0.0,WeatherDisplay:10.37,2013-06-25 10:05:00,
2013-06-25 06:10:00,68.4,66.0,30.08,WSW,238,0.0,0.0,92,0.00,BKN,SCT,0.00,0.0,WeatherDisplay:10.37,2013-06-25 10:10:00,
2013-06-25 06:15:00,68.5,66.1,30.08,WSW,238,0.0,0.0,92,0.00,BKN,SCT,0.00,5.0,WeatherDisplay:10.37,2013-06-25 10:15:00,
2013-06-25 06:20:00,68.6,66.2,30.08,WSW,238,0.0,0.0,92,0.00,BKN,SCT,0.00,7.0,WeatherDisplay:10.37,2013-06-25 10:20:00,
2013-06-25 06:25:00,68.7,66.3,30.08,WSW,238,0.0,1.0,92,0.00,BKN,SCT,0.00,9.0,WeatherDisplay:10.37,2013-06-25 10:25:00,
2013-06-25 06:35:00,68.9,66.5,30.08,WSW,245,1.0,2.0,92,0.00,BKN,SCT,0.00,16.0,WeatherDisplay:10.37,2013-06-25 10:35:00,
2013-06-25 06:40:00,69.1,66.7,30.08,WSW,245,0.0,2.0,92,0.00,BKN,SCT,0.00,19.0,WeatherDisplay:10.37,2013-06-25 10:40:00,
2013-06-25 06:45:00,69.3,67.2,30.08,WSW,244,0.0,2.0,93,0.00,BKN,SCT,0.00,19.0,WeatherDisplay:10.37,2013-06-25 10:45:00,
2013-06-25 06:50:00,69.4,67.3,30.08,WSW,241,0.0,2.0,93,0.00,BKN,SCT,0.00,26.0,WeatherDisplay:10.37,2013-06-25 10:50:00,
2013-06-25 06:55:00,69.5,67.4,30.08,SW,236,1.0,3.0,93,0.00,BKN,SCT,0.00,25.0,WeatherDisplay:10.37,2013-06-25 10:55:00,
2013-06-25 07:00:00,69.7,67.6,30.08,SW,236,0.0,3.0,93,0.00,BKN,SCT,0.00,26.0,WeatherDisplay:10.37,2013-06-25 11:00:00,
2013-06-25 07:05:00,69.9,67.8,30.08,SW,236,2.0,5.0,93,0.00,BKN,SCT,0.00,28.0,WeatherDisplay:10.37,2013-06-25 11:05:00,
2013-06-25 07:10:00,70.1,68.0,30.08,WSW,238,2.0,6.0,93,0.00,,SCT,0.00,28.0,WeatherDisplay:10.37,2013-06-25 11:10:00,
2013-06-25 07:15:00,70.3,68.1,30.08,WSW,239,1.0,5.0,93,0.00,,SCT,0.00,32.0,WeatherDisplay:10.37,2013-06-25 11:15:00,
2013-06-25 07:20:00,70.3,68.2,30.08,WSW,240,1.0,3.0,93,0.00,,SCT,0.00,32.0,WeatherDisplay:10.37,2013-06-25 11:20:00,
2013-06-25 07:25:00,70.4,68.3,30.08,WSW,240,1.0,4.0,93,0.00,,SCT,0.00,35.0,WeatherDisplay:10.37,2013-06-25 11:25:00,
2013-06-25 07:30:00,70.5,68.4,30.08,WSW,243,2.0,6.0,93,0.00,,SCT,0.00,42.0,WeatherDisplay:10.37,2013-06-25 11:30:00,
2013-06-25 07:35:00,70.6,68.5,30.08,WSW,244,1.0,4.0,93,0.00,,SCT,0.00,32.0,WeatherDisplay:10.37,2013-06-25 11:35:00,
2013-06-25 07:40:00,70.7,68.5,30.08,WSW,247,3.0,6.0,93,0.00,,SCT,0.00,42.0,WeatherDisplay:10.37,2013-06-25 11:40:00,
2013-06-25 07:45:00,70.7,68.6,30.09,WSW,247,2.0,5.0,93,0.00,,SCT,0.00,47.0,WeatherDisplay:10.37,2013-06-25 11:45:00,
2013-06-25 07:50:00,70.7,68.5,30.08,WSW,246,2.0,5.0,93,0.00,,SCT,0.00,60.0,WeatherDisplay:10.37,2013-06-25 11:50:00,
2013-06-25 07:55:00,70.7,68.6,30.09,WSW,246,1.0,5.0,93,0.00,,SCT,0.00,51.0,WeatherDisplay:10.37,2013-06-25 11:55:00,
2013-06-25 08:00:00,70.7,68.6,30.09,SW,235,3.0,7.0,93,0.00,OVC,SCT,0.00,49.0,WeatherDisplay:10.37,2013-06-25 12:00:00,
2013-06-25 08:05:00,70.7,68.6,30.09,WSW,256,2.0,5.0,93,0.00,OVC,SCT,0.00,77.0,WeatherDisplay:10.37,2013-06-25 12:05:00,
2013-06-25 08:10:00,70.8,68.6,30.09,WNW,292,1.0,4.0,93,0.00,BKN,SCT,0.00,88.0,WeatherDisplay:10.37,2013-06-25 12:10:00,
2013-06-25 08:15:00,70.8,68.7,30.10,WNW,290,3.0,7.0,93,0.00,BKN,SCT,0.00,53.0,WeatherDisplay:10.37,2013-06-25 12:15:00,
2013-06-25 08:20:00,70.8,68.7,30.10,West,280,2.0,7.0,93,0.00,BKN,SCT,0.00,134.0,WeatherDisplay:10.37,2013-06-25 12:20:00,
2013-06-25 08:25:00,70.9,68.8,30.10,West,273,3.0,6.0,93,0.00,BKN,SCT,0.00,142.0,WeatherDisplay:10.37,2013-06-25 12:25:00,
2013-06-25 08:30:00,71.1,69.0,30.10,West,265,2.0,6.0,93,0.00,BKN,SCT,0.00,134.0,WeatherDisplay:10.37,2013-06-25 12:30:00,
2013-06-25 08:35:00,71.2,69.1,30.10,WSW,252,2.0,9.0,93,0.00,BKN,SCT,0.00,128.0,WeatherDisplay:10.37,2013-06-25 12:35:00,
2013-06-25 08:40:00,71.3,69.2,30.10,WSW,245,3.0,6.0,93,0.00,BKN,SCT,0.00,151.0,WeatherDisplay:10.37,2013-06-25 12:40:00,
2013-06-25 08:45:00,71.3,69.2,30.10,West,277,2.0,5.0,93,0.00,BKN,SCT,0.00,155.0,WeatherDisplay:10.37,2013-06-25 12:45:00,
2013-06-25 08:50:00,71.4,69.3,30.10,NW,318,2.0,5.0,93,0.00,BKN,SCT,0.00,128.0,WeatherDisplay:10.37,2013-06-25 12:50:00,
2013-06-25 08:55:00,71.5,69.4,30.10,WNW,283,5.0,7.0,93,0.00,BKN,SCT,0.00,206.0,WeatherDisplay:10.37,2013-06-25 12:55:00,
2013-06-25 09:00:00,71.6,69.4,30.10,WSW,252,2.0,8.0,93,0.00,BKN,SCT,0.00,186.0,WeatherDisplay:10.37,2013-06-25 13:00:00,
2013-06-25 09:05:00,71.7,69.5,30.10,WSW,249,3.0,9.0,93,0.00,BKN,SCT,0.00,188.0,WeatherDisplay:10.37,2013-06-25 13:05:00,
2013-06-25 09:10:00,71.7,69.6,30.10,SW,236,3.0,9.0,93,0.00,BKN,SCT,0.00,167.0,WeatherDisplay:10.37,2013-06-25 13:10:00,
2013-06-25 09:15:00,71.8,69.7,30.10,SW,233,6.0,9.0,93,0.00,BKN,SCT,0.00,185.0,WeatherDisplay:10.37,2013-06-25 13:15:00,
2013-06-25 09:20:00,71.8,69.7,30.10,WSW,247,5.0,8.0,93,0.00,BKN,SCT,0.00,178.0,WeatherDisplay:10.37,2013-06-25 13:20:00,
2013-06-25 09:25:00,71.9,69.7,30.10,WSW,256,5.0,7.0,93,0.00,BKN,SCT,0.00,315.0,WeatherDisplay:10.37,2013-06-25 13:25:00,
2013-06-25 09:30:00,72.0,69.9,30.10,West,260,5.0,8.0,93,0.00,SCT,SCT,0.00,285.0,WeatherDisplay:10.37,2013-06-25 13:30:00,
2013-06-25 09:40:00,72.4,69.9,30.10,West,264,5.0,8.0,92,0.00,BKN,SCT,0.00,239.0,WeatherDisplay:10.37,2013-06-25 13:40:00,
2013-06-25 09:45:00,72.4,70.0,30.10,West,267,2.0,7.0,92,0.00,BKN,SCT,0.00,216.0,WeatherDisplay:10.37,2013-06-25 13:45:00,
2013-06-25 09:50:00,72.6,70.1,30.10,West,265,3.0,7.0,92,0.00,BKN,SCT,0.00,304.0,WeatherDisplay:10.37,2013-06-25 13:50:00,
2013-06-25 09:55:00,72.8,70.0,30.10,WSW,255,1.0,7.0,91,0.00,BKN,SCT,0.00,225.0,WeatherDisplay:10.37,2013-06-25 13:55:00,
2013-06-25 10:00:00,73.3,70.9,30.10,WSW,247,1.0,5.0,92,0.00,BKN,SCT,0.00,260.0,WeatherDisplay:10.37,2013-06-25 14:00:00,
2013-06-25 10:05:00,73.7,70.9,30.10,WSW,242,1.0,4.0,91,0.00,BKN,SCT,0.00,209.0,WeatherDisplay:10.37,2013-06-25 14:05:00,
2013-06-25 10:10:00,74.0,71.2,30.10,WSW,248,2.0,5.0,91,0.00,BKN,SCT,0.00,183.0,WeatherDisplay:10.37,2013-06-25 14:10:00,
2013-06-25 10:15:00,74.3,71.1,30.10,WSW,253,2.0,6.0,90,0.00,BKN,SCT,0.00,244.0,WeatherDisplay:10.37,2013-06-25 14:15:00,
2013-06-25 10:20:00,74.7,71.6,30.10,WSW,254,2.0,5.0,90,0.00,BKN,SCT,0.00,352.0,WeatherDisplay:10.37,2013-06-25 14:20:00,
2013-06-25 10:30:00,75.7,71.9,30.10,WSW,245,5.0,6.0,88,0.00,FEW,SCT,0.00,705.0,WeatherDisplay:10.37,2013-06-25 14:30:00,
2013-06-25 10:35:00,76.2,71.7,30.09,WSW,241,2.0,5.0,86,0.00,FEW,SCT,0.00,731.0,WeatherDisplay:10.37,2013-06-25 14:35:00,
2013-06-25 10:40:00,76.8,71.9,30.10,SW,231,2.0,9.0,85,0.00,FEW,SCT,0.00,731.0,WeatherDisplay:10.37,2013-06-25 14:40:00,
2013-06-25 10:45:00,77.2,72.0,30.09,WSW,238,2.0,7.0,84,0.00,FEW,SCT,0.00,742.0,WeatherDisplay:10.37,2013-06-25 14:45:00,
2013-06-25 10:50:00,77.5,71.9,30.09,WSW,255,3.0,5.0,83,0.00,FEW,SCT,0.00,752.0,WeatherDisplay:10.37,2013-06-25 14:50:00,
2013-06-25 10:55:00,78.0,72.4,30.10,WSW,241,2.0,7.0,83,0.00,FEW,SCT,0.00,773.0,WeatherDisplay:10.37,2013-06-25 14:55:00,
2013-06-25 11:00:00,78.4,72.8,30.10,WSW,241,2.0,8.0,83,0.00,FEW,SCT,0.00,786.0,WeatherDisplay:10.37,2013-06-25 15:00:00,
2013-06-25 11:05:00,78.7,72.7,30.09,WSW,251,1.0,4.0,82,0.00,FEW,SCT,0.00,793.0,WeatherDisplay:10.37,2013-06-25 15:05:00,
2013-06-25 11:10:00,79.1,73.1,30.09,WSW,245,1.0,5.0,82,0.00,FEW,SCT,0.00,803.0,WeatherDisplay:10.37,2013-06-25 15:10:00,
2013-06-25 11:15:00,79.5,73.2,30.09,WSW,237,1.0,5.0,81,0.00,FEW,SCT,0.00,817.0,WeatherDisplay:10.37,2013-06-25 15:15:00,
2013-06-25 11:25:00,80.3,72.8,30.09,SW,231,3.0,7.0,78,0.00,FEW,SCT,0.00,833.0,WeatherDisplay:10.37,2013-06-25 15:25:00,
2013-06-25 11:30:00,80.6,73.1,30.09,SW,236,0.0,6.0,78,0.00,FEW,SCT,0.00,844.0,WeatherDisplay:10.37,2013-06-25 15:30:00,
2013-06-25 11:35:00,80.9,73.0,30.09,SW,230,2.0,4.0,77,0.00,FEW,SCT,0.00,856.0,WeatherDisplay:10.37,2013-06-25 15:35:00,
2013-06-25 11:40:00,81.3,74.2,30.09,SSW,211,3.0,7.0,79,0.00,FEW,SCT,0.00,905.0,WeatherDisplay:10.37,2013-06-25 15:40:00,
2013-06-25 11:45:00,81.7,73.4,30.09,SSW,208,3.0,7.0,76,0.00,FEW,SCT,0.00,923.0,WeatherDisplay:10.37,2013-06-25 15:45:00,
2013-06-25 11:50:00,82.0,73.7,30.09,SSW,211,0.0,3.0,76,0.00,FEW,SCT,0.00,909.0,WeatherDisplay:10.37,2013-06-25 15:50:00,
2013-06-25 11:55:00,82.4,72.8,30.09,SSW,210,1.0,5.0,73,0.00,FEW,SCT,0.00,933.0,WeatherDisplay:10.37,2013-06-25 15:55:00,
2013-06-25 12:00:00,82.7,73.6,30.09,SSW,209,1.0,5.0,74,0.00,FEW,SCT,0.00,940.0,WeatherDisplay:10.37,2013-06-25 16:00:00,
2013-06-25 12:05:00,83.2,73.6,30.09,SSW,209,0.0,3.0,73,0.00,FEW,SCT,0.00,895.0,WeatherDisplay:10.37,2013-06-25 16:05:00,
2013-06-25 12:10:00,83.7,74.1,30.09,SSW,206,1.0,3.0,73,0.00,FEW,SCT,0.00,981.0,WeatherDisplay:10.37,2013-06-25 16:10:00,
2013-06-25 12:15:00,84.2,75.1,30.09,South,173,0.0,3.0,74,0.00,FEW,SCT,0.00,1058.0,WeatherDisplay:10.37,2013-06-25 16:15:00,
2013-06-25 12:20:00,84.6,73.7,30.08,SSE,160,1.0,3.0,70,0.00,FEW,SCT,0.00,394.0,WeatherDisplay:10.37,2013-06-25 16:20:00,
2013-06-25 12:25:00,85.0,74.5,30.08,SSE,147,3.0,6.0,71,0.00,FEW,SCT,0.00,1146.0,WeatherDisplay:10.37,2013-06-25 16:25:00,
2013-06-25 12:30:00,85.1,74.2,30.08,SW,225,2.0,7.0,70,0.00,FEW,SCT,0.00,431.0,WeatherDisplay:10.37,2013-06-25 16:30:00,
2013-06-25 12:35:00,84.9,73.6,30.08,West,265,3.0,6.0,69,0.00,SCT,SCT,0.00,504.0,WeatherDisplay:10.37,2013-06-25 16:35:00,
2013-06-25 12:40:00,84.8,73.1,30.08,West,271,2.0,4.0,68,0.00,SCT,SCT,0.00,798.0,WeatherDisplay:10.37,2013-06-25 16:40:00,
2013-06-25 12:45:00,84.9,73.2,30.08,WSW,246,2.0,5.0,68,0.00,SCT,SCT,0.00,939.0,WeatherDisplay:10.37,2013-06-25 16:45:00,
2013-06-25 12:50:00,85.0,73.7,30.08,SW,233,2.0,7.0,69,0.00,FEW,SCT,0.00,659.0,WeatherDisplay:10.37,2013-06-25 16:50:00,
2013-06-25 12:55:00,85.2,73.8,30.08,SW,233,3.0,6.0,69,0.00,SCT,SCT,0.00,1072.0,WeatherDisplay:10.37,2013-06-25 16:55:00,
2013-06-25 13:00:00,85.2,73.9,30.08,WSW,237,2.0,6.0,69,0.00,FEW,SCT,0.00,1072.0,WeatherDisplay:10.37,2013-06-25 17:00:00,
2013-06-25 13:05:00,85.4,74.1,30.07,WSW,240,1.0,5.0,69,0.00,CLR,SCT,0.00,1063.0,WeatherDisplay:10.37,2013-06-25 17:05:00,
2013-06-25 13:10:00,85.5,73.3,30.07,WSW,241,1.0,5.0,67,0.00,FEW,SCT,0.00,1030.0,WeatherDisplay:10.37,2013-06-25 17:10:00,
2013-06-25 13:15:00,85.7,73.9,30.07,West,266,1.0,5.0,68,0.00,FEW,SCT,0.00,1067.0,WeatherDisplay:10.37,2013-06-25 17:15:00,
2013-06-25 13:20:00,86.0,74.6,30.07,WSW,247,3.0,7.0,69,0.00,FEW,SCT,0.00,809.0,WeatherDisplay:10.37,2013-06-25 17:20:00,
2013-06-25 13:25:00,86.1,73.9,30.06,SW,235,5.0,8.0,67,0.00,FEW,SCT,0.00,1109.0,WeatherDisplay:10.37,2013-06-25 17:25:00,
2013-06-25 13:30:00,86.0,73.8,30.06,WSW,243,5.0,8.0,67,0.00,FEW,SCT,0.00,1028.0,WeatherDisplay:10.37,2013-06-25 17:30:00,
2013-06-25 13:35:00,86.1,73.0,30.06,WSW,241,5.0,6.0,65,0.00,FEW,SCT,0.00,1035.0,WeatherDisplay:10.37,2013-06-25 17:35:00,
2013-06-25 13:40:00,86.2,74.0,30.05,SW,216,2.0,7.0,67,0.00,FEW,SCT,0.00,1030.0,WeatherDisplay:10.37,2013-06-25 17:40:00,
2013-06-25 13:45:00,86.3,74.0,30.05,South,186,2.0,7.0,67,0.00,FEW,SCT,0.00,1037.0,WeatherDisplay:10.37,2013-06-25 17:45:00,
2013-06-25 13:50:00,86.5,76.0,30.05,South,188,0.0,3.0,71,0.00,FEW,SCT,0.00,1053.0,WeatherDisplay:10.37,2013-06-25 17:50:00,
2013-06-25 13:55:00,86.7,73.5,30.05,South,186,1.0,6.0,65,0.00,FEW,SCT,0.00,1018.0,WeatherDisplay:10.37,2013-06-25 17:55:00,
2013-06-25 14:00:00,86.5,71.9,30.04,SSE,167,2.0,6.0,62,0.00,FEW,SCT,0.00,1020.0,WeatherDisplay:10.37,2013-06-25 18:00:00,
2013-06-25 14:05:00,86.3,72.2,30.04,SSE,159,2.0,6.0,63,0.00,SCT,SCT,0.00,1014.0,WeatherDisplay:10.37,2013-06-25 18:05:00,
2013-06-25 14:10:00,86.3,73.6,30.03,SSE,161,1.0,4.0,66,0.00,SCT,SCT,0.00,1034.0,WeatherDisplay:10.37,2013-06-25 18:10:00,
2013-06-25 14:15:00,86.5,72.4,30.03,South,169,2.0,5.0,63,0.00,FEW,SCT,0.00,1049.0,WeatherDisplay:10.37,2013-06-25 18:15:00,
2013-06-25 14:20:00,86.6,72.0,30.03,South,171,0.0,4.0,62,0.00,FEW,SCT,0.00,998.0,WeatherDisplay:10.37,2013-06-25 18:20:00,
2013-06-25 14:25:00,86.9,73.7,30.03,South,174,2.0,6.0,65,0.00,FEW,SCT,0.00,998.0,WeatherDisplay:10.37,2013-06-25 18:25:00,
2013-06-25 14:30:00,87.1,72.0,30.03,South,180,1.0,5.0,61,0.00,FEW,SCT,0.00,986.0,WeatherDisplay:10.37,2013-06-25 18:30:00,
2013-06-25 14:35:00,87.2,71.6,30.03,South,182,0.0,5.0,60,0.00,FEW,SCT,0.00,990.0,WeatherDisplay:10.37,2013-06-25 18:35:00,
2013-06-25 14:40:00,87.2,70.6,30.02,South,182,1.0,3.0,58,0.00,FEW,SCT,0.00,990.0,WeatherDisplay:10.37,2013-06-25 18:40:00,
2013-06-25 14:50:00,87.1,72.5,30.02,SSW,195,2.0,5.0,62,0.00,FEW,SCT,0.00,984.0,WeatherDisplay:10.37,2013-06-25 18:50:00,
2013-06-25 14:55:00,87.4,71.8,30.03,SW,217,1.0,6.0,60,0.00,FEW,SCT,0.00,988.0,WeatherDisplay:10.37,2013-06-25 18:55:00,
2013-06-25 15:00:00,87.6,72.5,30.02,SW,222,0.0,3.0,61,0.00,FEW,SCT,0.00,930.0,WeatherDisplay:10.37,2013-06-25 19:00:00,
2013-06-25 15:05:00,87.9,72.7,30.02,SW,222,0.0,4.0,61,0.00,FEW,SCT,0.00,984.0,WeatherDisplay:10.37,2013-06-25 19:05:00,
2013-06-25 15:10:00,88.1,71.9,30.02,SSW,211,2.0,5.0,59,0.00,CLR,SCT,0.00,967.0,WeatherDisplay:10.37,2013-06-25 19:10:00,
2013-06-25 15:15:00,88.0,71.3,30.02,SSW,207,1.0,5.0,58,0.00,SCT,SCT,0.00,360.0,WeatherDisplay:10.37,2013-06-25 19:15:00,
2013-06-25 15:20:00,87.7,71.6,30.02,SSW,193,1.0,5.0,59,0.00,SCT,SCT,0.00,953.0,WeatherDisplay:10.37,2013-06-25 19:20:00,
2013-06-25 15:30:00,88.1,71.5,30.01,SSW,209,1.0,5.0,58,0.00,CLR,SCT,0.00,972.0,WeatherDisplay:10.37,2013-06-25 19:30:00,
2013-06-25 15:35:00,88.4,73.2,30.00,SSW,204,3.0,7.0,61,0.00,CLR,SCT,0.00,944.0,WeatherDisplay:10.37,2013-06-25 19:35:00,
2013-06-25 15:40:00,88.6,72.9,30.01,SSW,205,3.0,5.0,60,0.00,CLR,SCT,0.00,953.0,WeatherDisplay:10.37,2013-06-25 19:40:00,
2013-06-25 15:45:00,88.8,73.1,30.01,SSW,212,2.0,5.0,60,0.00,CLR,SCT,0.00,214.0,WeatherDisplay:10.37,2013-06-25 19:45:00,
2013-06-25 15:50:00,88.8,73.1,30.01,WSW,240,0.0,4.0,60,0.00,SCT,SCT,0.00,339.0,WeatherDisplay:10.37,2013-06-25 19:50:00,
2013-06-25 15:55:00,88.7,73.0,30.00,West,277,2.0,4.0,60,0.00,BKN,SCT,0.00,925.0,WeatherDisplay:10.37,2013-06-25 19:55:00,
2013-06-25 16:00:00,88.8,72.6,30.00,West,278,3.0,6.0,59,0.00,SCT,SCT,0.00,236.0,WeatherDisplay:10.37,2013-06-25 20:00:00,
2013-06-25 16:05:00,88.7,71.5,30.00,West,272,5.0,7.0,57,0.00,SCT,SCT,0.00,246.0,WeatherDisplay:10.37,2013-06-25 20:05:00,
2013-06-25 16:10:00,88.4,72.8,30.00,SW,233,3.0,7.0,60,0.00,SCT,SCT,0.00,830.0,WeatherDisplay:10.37,2013-06-25 20:10:00,
2013-06-25 16:15:00,88.5,72.3,30.00,SSW,212,5.0,6.0,59,0.00,FEW,SCT,0.00,826.0,WeatherDisplay:10.37,2013-06-25 20:15:00,
2013-06-25 16:20:00,88.6,72.4,30.00,SW,224,3.0,8.0,59,0.00,CLR,SCT,0.00,860.0,WeatherDisplay:10.37,2013-06-25 20:20:00,
2013-06-25 16:25:00,88.7,72.5,30.00,SW,235,2.0,7.0,59,0.00,CLR,SCT,0.00,849.0,WeatherDisplay:10.37,2013-06-25 20:25:00,
2013-06-25 16:30:00,88.7,71.0,30.00,WSW,242,2.0,6.0,56,0.00,FEW,SCT,0.00,345.0,WeatherDisplay:10.37,2013-06-25 20:30:00,
2013-06-25 16:35:00,88.7,73.5,30.00,WSW,242,0.0,2.0,61,0.00,SCT,SCT,0.00,796.0,WeatherDisplay:10.37,2013-06-25 20:35:00,
2013-06-25 16:40:00,88.8,72.1,30.00,West,269,1.0,4.0,58,0.00,SCT,SCT,0.00,218.0,WeatherDisplay:10.37,2013-06-25 20:40:00,
2013-06-25 16:45:00,88.8,72.1,30.00,WSW,254,6.0,8.0,58,0.00,SCT,SCT,0.00,527.0,WeatherDisplay:10.37,2013-06-25 20:45:00,
2013-06-25 16:50:00,88.7,71.5,30.00,SW,227,3.0,7.0,57,0.00,SCT,SCT,0.00,828.0,WeatherDisplay:10.37,2013-06-25 20:50:00,
2013-06-25 16:55:00,88.8,72.7,30.00,SW,232,2.0,5.0,59,0.00,CLR,SCT,0.00,722.0,WeatherDisplay:10.37,2013-06-25 20:55:00,
2013-06-25 17:00:00,89.0,72.3,30.00,WSW,256,2.0,5.0,58,0.00,CLR,SCT,0.00,264.0,WeatherDisplay:10.37,2013-06-25 21:00:00,
2013-06-25 17:05:00,89.0,73.3,29.99,WSW,248,1.0,5.0,60,0.00,FEW,SCT,0.00,671.0,WeatherDisplay:10.37,2013-06-25 21:05:00,
2013-06-25 17:10:00,88.8,71.6,29.99,WSW,242,1.0,3.0,57,0.00,SCT,SCT,0.00,183.0,WeatherDisplay:10.37,2013-06-25 21:10:00,
2013-06-25 17:15:00,88.4,71.8,30.00,WSW,242,1.0,5.0,58,0.00,BKN,SCT,0.00,183.0,WeatherDisplay:10.37,2013-06-25 21:15:00,
2013-06-25 17:25:00,87.7,72.6,29.99,WSW,245,1.0,5.0,61,0.00,BKN,SCT,0.00,200.0,WeatherDisplay:10.37,2013-06-25 21:25:00,
2013-06-25 17:30:00,87.2,72.1,29.99,WSW,258,5.0,8.0,61,0.00,BKN,SCT,0.00,230.0,WeatherDisplay:10.37,2013-06-25 21:30:00,
2013-06-25 17:35:00,86.6,72.1,30.00,West,262,1.0,6.0,62,0.00,BKN,SCT,0.00,258.0,WeatherDisplay:10.37,2013-06-25 21:35:00,
2013-06-25 17:40:00,86.3,72.2,30.00,WSW,249,1.0,5.0,63,0.00,BKN,SCT,0.00,225.0,WeatherDisplay:10.37,2013-06-25 21:40:00,
2013-06-25 17:45:00,86.1,72.9,29.99,SW,226,1.0,4.0,65,0.00,BKN,SCT,0.00,197.0,WeatherDisplay:10.37,2013-06-25 21:45:00,
2013-06-25 17:50:00,85.7,72.6,29.99,SW,226,0.0,3.0,65,0.00,BKN,SCT,0.00,216.0,WeatherDisplay:10.37,2013-06-25 21:50:00,
2013-06-25 17:55:00,85.6,72.9,29.99,SW,226,0.0,2.0,66,0.00,BKN,SCT,0.00,229.0,WeatherDisplay:10.37,2013-06-25 21:55:00,
2013-06-25 18:00:00,85.4,73.2,29.99,SW,226,1.0,3.0,67,0.00,BKN,SCT,0.00,197.0,WeatherDisplay:10.37,2013-06-25 22:00:00,
2013-06-25 18:05:00,85.3,73.5,29.99,SW,226,0.0,2.0,68,0.00,BKN,SCT,0.00,186.0,WeatherDisplay:10.37,2013-06-25 22:05:00,
2013-06-25 18:10:00,85.0,73.3,29.98,WSW,239,1.0,4.0,68,0.00,BKN,SCT,0.00,181.0,WeatherDisplay:10.37,2013-06-25 22:10:00,
2013-06-25 18:15:00,85.0,73.2,29.98,WSW,242,2.0,3.0,68,0.00,BKN,SCT,0.00,214.0,WeatherDisplay:10.37,2013-06-25 22:15:00,
2013-06-25 18:20:00,84.8,73.1,29.98,SW,234,2.0,5.0,68,0.00,BKN,SCT,0.00,200.0,WeatherDisplay:10.37,2013-06-25 22:20:00,
2013-06-25 18:30:00,84.8,73.4,29.96,SW,231,0.0,3.0,69,0.00,FEW,SCT,0.00,459.0,WeatherDisplay:10.37,2013-06-25 22:30:00,
2013-06-25 18:35:00,85.0,73.7,29.96,SW,231,0.0,4.0,69,0.00,CLR,SCT,0.00,381.0,WeatherDisplay:10.37,2013-06-25 22:35:00,
2013-06-25 18:40:00,85.3,73.5,29.96,SW,231,1.0,3.0,68,0.00,CLR,SCT,0.00,195.0,WeatherDisplay:10.37,2013-06-25 22:40:00,
2013-06-25 18:45:00,85.6,72.4,29.97,SW,231,0.0,3.0,65,0.00,FEW,SCT,0.00,230.0,WeatherDisplay:10.37,2013-06-25 22:45:00,
2013-06-25 18:55:00,86.0,73.3,29.97,SW,231,0.0,1.0,66,0.00,SCT,SCT,0.00,301.0,WeatherDisplay:10.37,2013-06-25 22:55:00,
2013-06-25 19:00:00,86.1,73.0,29.96,South,186,0.0,3.0,65,0.00,FEW,SCT,0.00,211.0,WeatherDisplay:10.37,2013-06-25 23:00:00,
2013-06-25 19:05:00,86.2,73.0,29.96,South,172,0.0,3.0,65,0.00,FEW,SCT,0.00,162.0,WeatherDisplay:10.37,2013-06-25 23:05:00,
2013-06-25 19:10:00,86.3,73.1,29.96,South,182,0.0,1.0,65,0.00,SCT,SCT,0.00,179.0,WeatherDisplay:10.37,2013-06-25 23:10:00,
2013-06-25 19:15:00,86.2,73.0,29.96,SW,234,0.0,1.0,65,0.00,SCT,SCT,0.00,74.0,WeatherDisplay:10.37,2013-06-25 23:15:00,
2013-06-25 19:20:00,86.1,73.0,29.96,SW,236,0.0,0.0,65,0.00,BKN,SCT,0.00,62.0,WeatherDisplay:10.37,2013-06-25 23:20:00,
2013-06-25 19:25:00,86.0,74.2,29.97,SW,236,0.0,1.0,68,0.00,BKN,SCT,0.00,58.0,WeatherDisplay:10.37,2013-06-25 23:25:00,
2013-06-25 19:30:00,85.7,74.8,29.97,SW,236,0.0,0.0,70,0.00,BKN,SCT,0.00,54.0,WeatherDisplay:10.37,2013-06-25 23:30:00,
2013-06-25 19:35:00,85.4,75.0,29.97,SW,236,0.0,0.0,71,0.00,BKN,SCT,0.00,49.0,WeatherDisplay:10.37,2013-06-25 23:35:00,
2013-06-25 19:40:00,85.2,75.1,29.97,SW,236,0.0,0.0,72,0.00,BKN,SCT,0.00,44.0,WeatherDisplay:10.37,2013-06-25 23:40:00,
2013-06-25 19:45:00,84.8,74.7,29.97,SW,236,0.0,0.0,72,0.00,BKN,SCT,0.00,37.0,WeatherDisplay:10.37,2013-06-25 23:45:00,
2013-06-25 19:50:00,84.4,74.8,29.97,WSW,237,0.0,1.0,73,0.00,BKN,SCT,0.00,32.0,WeatherDisplay:10.37,2013-06-25 23:50:00,
2013-06-25 19:55:00,83.8,75.0,29.98,SW,235,0.0,1.0,75,0.00,,SCT,0.00,26.0,WeatherDisplay:10.37,2013-06-25 23:55:00,
2013-06-25 20:00:00,83.2,75.2,29.98,SW,223,0.0,1.0,77,0.00,,SCT,0.00,23.0,WeatherDisplay:10.37,2013-06-26 00:00:00,
2013-06-25 20:05:00,82.7,74.4,29.98,SW,223,0.0,0.0,76,0.00,,SCT,0.00,19.0,WeatherDisplay:10.37,2013-06-26 00:05:00,
2013-06-25 20:10:00,82.3,74.8,29.98,SW,223,0.0,0.0,78,0.00,,SCT,0.00,18.0,WeatherDisplay:10.37,2013-06-26 00:10:00,
2013-06-25 20:15:00,81.8,74.3,29.98,SW,223,0.0,0.0,78,0.00,,SCT,0.00,14.0,WeatherDisplay:10.37,2013-06-26 00:15:00,
2013-06-25 20:20:00,81.2,72.5,29.98,SSW,206,3.0,6.0,75,0.00,,SCT,0.00,11.0,WeatherDisplay:10.37,2013-06-26 00:20:00,
2013-06-25 20:25:00,80.7,71.6,29.98,South,188,3.0,6.0,74,0.00,,SCT,0.00,9.0,WeatherDisplay:10.37,2013-06-26 00:25:00,
2013-06-25 20:30:00,80.4,71.7,29.99,South,190,1.0,5.0,75,0.00,,SCT,0.00,7.0,WeatherDisplay:10.37,2013-06-26 00:30:00,
2013-06-25 20:35:00,80.2,71.6,29.99,SSW,201,5.0,7.0,75,0.00,,SCT,0.00,0.0,WeatherDisplay:10.37,2013-06-26 00:35:00,
2013-06-25 20:40:00,80.1,71.4,29.99,SSW,207,2.0,6.0,75,0.00,,SCT,0.00,0.0,WeatherDisplay:10.37,2013-06-26 00:40:00,
2013-06-25 20:45:00,79.9,71.3,29.98,SSW,213,3.0,9.0,75,0.00,,SCT,0.00,0.0,WeatherDisplay:10.37,2013-06-26 00:45:00,
2013-06-25 20:50:00,79.8,70.7,29.98,SW,221,2.0,8.0,74,0.00,,SCT,0.00,0.0,WeatherDisplay:10.37,2013-06-26 00:50:00,
2013-06-25 20:55:00,79.6,70.2,29.98,SW,223,1.0,6.0,73,0.00,,SCT,0.00,0.0,WeatherDisplay:10.37,2013-06-26 00:55:00,
2013-06-25 21:00:00,79.4,70.0,29.98,SW,218,1.0,4.0,73,0.00,,SCT,0.00,0.0,WeatherDisplay:10.37,2013-06-26 01:00:00,
2013-06-25 21:05:00,79.3,70.3,29.98,SW,216,1.0,6.0,74,0.00,,SCT,0.00,0.0,WeatherDisplay:10.37,2013-06-26 01:05:00,
2013-06-25 21:10:00,79.2,70.2,29.98,SW,217,1.0,6.0,74,0.00,,SCT,0.00,0.0,WeatherDisplay:10.37,2013-06-26 01:10:00,
2013-06-25 21:15:00,79.0,70.0,29.98,SW,217,2.0,6.0,74,0.00,,SCT,0.00,0.0,WeatherDisplay:10.37,2013-06-26 01:15:00,
2013-06-25 21:20:00,78.7,69.8,29.98,SSW,210,2.0,7.0,74,0.00,,SCT,0.00,0.0,WeatherDisplay:10.37,2013-06-26 01:20:00,
2013-06-25 21:25:00,78.7,70.1,29.98,SSW,211,1.0,6.0,75,0.00,,SCT,0.00,0.0,WeatherDisplay:10.37,2013-06-26 01:25:00,
2013-06-25 21:30:00,78.5,69.9,29.98,SW,215,1.0,5.0,75,0.00,,SCT,0.00,0.0,WeatherDisplay:10.37,2013-06-26 01:30:00,
2013-06-25 21:35:00,78.3,69.7,29.98,SW,215,1.0,5.0,75,0.00,,SCT,0.00,0.0,WeatherDisplay:10.37,2013-06-26 01:35:00,
2013-06-25 21:40:00,78.2,69.6,29.99,SW,215,0.0,5.0,75,0.00,,SCT,0.00,0.0,WeatherDisplay:10.37,2013-06-26 01:40:00,
2013-06-25 21:45:00,78.0,69.8,29.99,SW,215,1.0,3.0,76,0.00,,SCT,0.00,0.0,WeatherDisplay:10.37,2013-06-26 01:45:00,
2013-06-25 21:50:00,77.9,69.7,29.99,SW,215,1.0,3.0,76,0.00,,SCT,0.00,0.0,WeatherDisplay:10.37,2013-06-26 01:50:00,
2013-06-25 21:55:00,77.8,69.6,29.99,SW,215,1.0,2.0,76,0.00,,SCT,0.00,0.0,WeatherDisplay:10.37,2013-06-26 01:55:00,
2013-06-25 22:05:00,77.5,69.7,30.00,SW,215,2.0,4.0,77,0.00,,SCT,0.00,0.0,WeatherDisplay:10.37,2013-06-26 02:05:00,
2013-06-25 22:10:00,77.3,69.6,30.00,SW,215,3.0,5.0,77,0.00,,SCT,0.00,0.0,WeatherDisplay:10.37,2013-06-26 02:10:00,
2013-06-25 22:15:00,77.1,69.7,30.00,SW,216,2.0,5.0,78,0.00,,SCT,0.00,0.0,WeatherDisplay:10.37,2013-06-26 02:15:00,
2013-06-25 22:20:00,76.8,69.1,30.00,SW,223,3.0,9.0,77,0.00,,SCT,0.00,0.0,WeatherDisplay:10.37,2013-06-26 02:20:00,
2013-06-25 22:25:00,76.6,68.8,30.00,SW,224,2.0,7.0,77,0.00,,SCT,0.00,0.0,WeatherDisplay:10.37,2013-06-26 02:25:00,
2013-06-25 22:30:00,76.5,68.7,30.00,SW,222,0.0,4.0,77,0.00,,SCT,0.00,0.0,WeatherDisplay:10.37,2013-06-26 02:30:00,
2013-06-25 22:35:00,76.3,68.6,30.00,SW,223,1.0,5.0,77,0.00,,SCT,0.00,0.0,WeatherDisplay:10.37,2013-06-26 02:35:00,
2013-06-25 22:45:00,76.1,68.3,30.00,SW,223,1.0,4.0,77,0.00,,SCT,0.00,0.0,WeatherDisplay:10.37,2013-06-26 02:45:00,
2013-06-25 22:50:00,75.9,68.5,30.00,SW,223,1.0,5.0,78,0.00,,SCT,0.00,0.0,WeatherDisplay:10.37,2013-06-26 02:50:00,
2013-06-25 22:55:00,75.7,68.4,30.00,SW,223,1.0,3.0,78,0.00,,SCT,0.00,0.0,WeatherDisplay:10.37,2013-06-26 02:55:00,
2013-06-25 23:05:00,75.4,68.1,30.00,SW,223,0.0,4.0,78,0.00,,SCT,0.00,0.0,WeatherDisplay:10.37,2013-06-26 03:05:00,
2013-06-25 23:10:00,75.3,68.0,30.00,SW,223,0.0,2.0,78,0.00,,SCT,0.00,0.0,WeatherDisplay:10.37,2013-06-26 03:10:00,
2013-06-25 23:15:00,75.2,67.9,30.00,SW,223,0.0,1.0,78,0.00,,SCT,0.00,0.0,WeatherDisplay:10.37,2013-06-26 03:15:00,
2013-06-25 23:20:00,75.1,67.7,30.00,SW,223,1.0,2.0,78,0.00,,SCT,0.00,0.0,WeatherDisplay:10.37,2013-06-26 03:20:00,
2013-06-25 23:25:00,74.9,67.6,30.00,SW,223,0.0,2.0,78,0.00,,SCT,0.00,0.0,WeatherDisplay:10.37,2013-06-26 03:25:00,
2013-06-25 23:30:00,74.7,67.4,30.00,SW,223,1.0,2.0,78,0.00,,SCT,0.00,0.0,WeatherDisplay:10.37,2013-06-26 03:30:00,
2013-06-25 23:40:00,74.5,67.2,30.00,SW,223,0.0,1.0,78,0.00,,SCT,0.00,0.0,WeatherDisplay:10.37,2013-06-26 03:40:00,
2013-06-25 23:45:00,74.4,67.1,30.00,SW,223,0.0,1.0,78,0.00,,SCT,0.00,0.0,WeatherDisplay:10.37,2013-06-26 03:45:00,
2013-06-25 23:50:00,74.3,67.4,30.00,SW,223,0.0,1.0,79,0.00,,SCT,0.00,0.0,WeatherDisplay:10.37,2013-06-26 03:50:00,
2013-06-25 23:55:00,74.2,67.2,30.00,SW,223,0.0,1.0,79,0.00,,SCT,0.00,0.0,WeatherDisplay:10.37,2013-06-26 03:55:00,